sensor_id;sensor_type;location;lat;lon;timestamp;pressure;altitude;pressure_sealevel;temperature;humidity
64844;BME280;51310;52.198;5.422;2023-08-31T00:00:44;100608.28;;;11.39;84.86
64844;BME280;51310;52.198;5.422;2023-08-31T00:03:11;100615.09;;;11.43;84.96
64844;BME280;51310;52.198;5.422;2023-08-31T00:05:41;100588.88;;;11.36;85.01
64844;BME280;51310;52.198;5.422;2023-08-31T00:08:08;100604.94;;;11.49;85.17
64844;BME280;51310;52.198;5.422;2023-08-31T00:10:35;100584.38;;;11.36;85.11
64844;BME280;51310;52.198;5.422;2023-08-31T00:13:05;100586.97;;;11.38;85.27
64844;BME280;51310;52.198;5.422;2023-08-31T00:15:34;100591.66;;;11.34;85.42
64844;BME280;51310;52.198;5.422;2023-08-31T00:18:02;100595.09;;;11.36;85.52
64844;BME280;51310;52.198;5.422;2023-08-31T00:20:32;100601.84;;;11.42;85.70
64844;BME280;51310;52.198;5.422;2023-08-31T00:22:59;100602.69;;;11.42;85.87
64844;BME280;51310;52.198;5.422;2023-08-31T00:25:26;100596.59;;;11.40;85.96
64844;BME280;51310;52.198;5.422;2023-08-31T00:27:52;100591.25;;;11.40;86.09
64844;BME280;51310;52.198;5.422;2023-08-31T00:30:19;100602.56;;;11.57;86.10
64844;BME280;51310;52.198;5.422;2023-08-31T00:32:45;100606.63;;;11.62;86.07
64844;BME280;51310;52.198;5.422;2023-08-31T00:35:13;100594.84;;;11.65;86.06
64844;BME280;51310;52.198;5.422;2023-08-31T00:37:39;100608.22;;;11.78;86.09
64844;BME280;51310;52.198;5.422;2023-08-31T00:40:05;100593.75;;;11.80;85.96
64844;BME280;51310;52.198;5.422;2023-08-31T00:42:34;100604.59;;;11.92;85.89
64844;BME280;51310;52.198;5.422;2023-08-31T00:45:00;100594.63;;;11.94;85.60
64844;BME280;51310;52.198;5.422;2023-08-31T00:47:26;100607.03;;;11.95;85.68
64844;BME280;51310;52.198;5.422;2023-08-31T00:49:52;100615.97;;;12.06;85.63
64844;BME280;51310;52.198;5.422;2023-08-31T00:52:19;100623.69;;;12.11;85.66
64844;BME280;51310;52.198;5.422;2023-08-31T00:54:46;100605.28;;;12.06;85.93
64844;BME280;51310;52.198;5.422;2023-08-31T00:57:13;100609.78;;;12.06;86.02
64844;BME280;51310;52.198;5.422;2023-08-31T00:59:39;100611.50;;;12.07;86.24
64844;BME280;51310;52.198;5.422;2023-08-31T01:02:11;100598.97;;;12.07;86.36
64844;BME280;51310;52.198;5.422;2023-08-31T01:14:44;100581.50;;;12.02;86.81
64844;BME280;51310;52.198;5.422;2023-08-31T01:17:17;100589.34;;;12.05;86.78
64844;BME280;51310;52.198;5.422;2023-08-31T01:19:54;100609.09;;;12.15;87.04
64844;BME280;51310;52.198;5.422;2023-08-31T01:22:27;100607.41;;;12.14;86.85
64844;BME280;51310;52.198;5.422;2023-08-31T01:24:59;100604.94;;;12.11;87.00
64844;BME280;51310;52.198;5.422;2023-08-31T01:27:32;100612.28;;;12.20;86.80
64844;BME280;51310;52.198;5.422;2023-08-31T01:29:59;100617.81;;;12.06;86.99
64844;BME280;51310;52.198;5.422;2023-08-31T01:32:25;100639.56;;;12.14;87.16
64844;BME280;51310;52.198;5.422;2023-08-31T01:34:52;100640.97;;;12.07;87.16
64844;BME280;51310;52.198;5.422;2023-08-31T01:37:35;100638.72;;;12.01;87.65
64844;BME280;51310;52.198;5.422;2023-08-31T01:40:20;100615.50;;;11.88;88.02
64844;BME280;51310;52.198;5.422;2023-08-31T01:42:50;100639.34;;;12.04;88.41
64844;BME280;51310;52.198;5.422;2023-08-31T01:45:22;100637.31;;;12.08;88.50
64844;BME280;51310;52.198;5.422;2023-08-31T01:47:48;100655.41;;;12.17;88.01
64844;BME280;51310;52.198;5.422;2023-08-31T01:50:15;100635.94;;;12.02;87.97
64844;BME280;51310;52.198;5.422;2023-08-31T01:52:40;100625.66;;;11.96;88.09
64844;BME280;51310;52.198;5.422;2023-08-31T01:55:07;100631.66;;;12.00;88.42
64844;BME280;51310;52.198;5.422;2023-08-31T01:57:33;100635.63;;;11.94;88.46
64844;BME280;51310;52.198;5.422;2023-08-31T01:59:59;100627.84;;;11.91;88.71
64844;BME280;51310;52.198;5.422;2023-08-31T02:02:26;100608.34;;;11.89;88.89
64844;BME280;51310;52.198;5.422;2023-08-31T02:04:52;100616.47;;;11.87;89.08
64844;BME280;51310;52.198;5.422;2023-08-31T02:07:18;100602.13;;;11.76;88.82
64844;BME280;51310;52.198;5.422;2023-08-31T02:09:44;100609.94;;;11.66;88.95
64844;BME280;51310;52.198;5.422;2023-08-31T02:12:10;100608.47;;;11.62;88.92
64844;BME280;51310;52.198;5.422;2023-08-31T02:14:36;100621.19;;;11.71;88.98
64844;BME280;51310;52.198;5.422;2023-08-31T02:17:03;100622.03;;;11.72;89.04
64844;BME280;51310;52.198;5.422;2023-08-31T02:19:29;100606.09;;;11.70;89.18
64844;BME280;51310;52.198;5.422;2023-08-31T02:21:55;100602.31;;;11.73;89.09
64844;BME280;51310;52.198;5.422;2023-08-31T02:24:21;100608.75;;;11.70;89.14
64844;BME280;51310;52.198;5.422;2023-08-31T02:26:48;100618.38;;;11.73;89.09
64844;BME280;51310;52.198;5.422;2023-08-31T02:29:14;100610.50;;;11.71;89.23
64844;BME280;51310;52.198;5.422;2023-08-31T02:31:40;100607.25;;;11.66;89.21
64844;BME280;51310;52.198;5.422;2023-08-31T02:34:07;100628.66;;;11.79;89.32
64844;BME280;51310;52.198;5.422;2023-08-31T02:36:33;100614.63;;;11.75;89.26
64844;BME280;51310;52.198;5.422;2023-08-31T02:38:59;100623.53;;;11.76;89.27
64844;BME280;51310;52.198;5.422;2023-08-31T02:41:25;100614.53;;;11.77;89.25
64844;BME280;51310;52.198;5.422;2023-08-31T02:43:52;100625.66;;;11.83;89.48
64844;BME280;51310;52.198;5.422;2023-08-31T02:46:18;100616.78;;;11.83;89.46
64844;BME280;51310;52.198;5.422;2023-08-31T02:48:44;100617.41;;;11.86;89.51
64844;BME280;51310;52.198;5.422;2023-08-31T02:51:11;100615.69;;;11.85;89.54
64844;BME280;51310;52.198;5.422;2023-08-31T02:53:37;100612.63;;;11.92;89.17
64844;BME280;51310;52.198;5.422;2023-08-31T02:56:03;100593.00;;;11.78;89.00
64844;BME280;51310;52.198;5.422;2023-08-31T02:58:29;100610.78;;;11.79;88.99
64844;BME280;51310;52.198;5.422;2023-08-31T03:00:55;100599.66;;;11.73;89.02
64844;BME280;51310;52.198;5.422;2023-08-31T03:03:21;100607.69;;;11.73;89.10
64844;BME280;51310;52.198;5.422;2023-08-31T03:05:47;100604.91;;;11.74;89.16
64844;BME280;51310;52.198;5.422;2023-08-31T03:08:13;100603.31;;;11.72;89.19
64844;BME280;51310;52.198;5.422;2023-08-31T03:10:40;100604.25;;;11.71;89.24
64844;BME280;51310;52.198;5.422;2023-08-31T03:13:06;100574.00;;;11.57;89.27
64844;BME280;51310;52.198;5.422;2023-08-31T03:15:33;100617.53;;;11.72;89.42
64844;BME280;51310;52.198;5.422;2023-08-31T03:18:02;100606.31;;;11.67;89.50
64844;BME280;51310;52.198;5.422;2023-08-31T03:20:28;100594.00;;;11.64;89.49
64844;BME280;51310;52.198;5.422;2023-08-31T03:22:54;100609.19;;;11.77;89.52
64844;BME280;51310;52.198;5.422;2023-08-31T03:25:20;100599.97;;;11.68;89.45
64844;BME280;51310;52.198;5.422;2023-08-31T03:27:45;100594.84;;;11.65;89.52
64844;BME280;51310;52.198;5.422;2023-08-31T03:30:12;100615.38;;;11.77;89.57
64844;BME280;51310;52.198;5.422;2023-08-31T03:32:38;100604.91;;;11.74;89.45
64844;BME280;51310;52.198;5.422;2023-08-31T03:35:05;100619.88;;;11.77;89.21
64844;BME280;51310;52.198;5.422;2023-08-31T03:37:31;100618.81;;;11.79;89.22
64844;BME280;51310;52.198;5.422;2023-08-31T03:39:57;100618.81;;;11.79;89.08
64844;BME280;51310;52.198;5.422;2023-08-31T03:42:23;100627.81;;;11.78;88.96
64844;BME280;51310;52.198;5.422;2023-08-31T03:44:48;100610.50;;;11.71;89.00
64844;BME280;51310;52.198;5.422;2023-08-31T03:47:14;100624.81;;;11.70;89.05
64844;BME280;51310;52.198;5.422;2023-08-31T03:49:40;100626.13;;;11.64;89.11
64844;BME280;51310;52.198;5.422;2023-08-31T03:52:06;100626.13;;;11.64;89.00
64844;BME280;51310;52.198;5.422;2023-08-31T03:54:32;100638.44;;;11.67;89.11
64844;BME280;51310;52.198;5.422;2023-08-31T03:56:58;100618.75;;;11.55;89.16
64844;BME280;51310;52.198;5.422;2023-08-31T03:59:24;100635.75;;;11.67;89.08
64844;BME280;51310;52.198;5.422;2023-08-31T04:01:50;100636.59;;;11.67;89.00
64844;BME280;51310;52.198;5.422;2023-08-31T04:04:16;100647.97;;;11.71;89.00
64844;BME280;51310;52.198;5.422;2023-08-31T04:06:41;100637.44;;;11.68;88.88
64844;BME280;51310;52.198;5.422;2023-08-31T04:09:07;100622.47;;;11.65;88.79
64844;BME280;51310;52.198;5.422;2023-08-31T04:11:33;100643.88;;;11.78;88.91
64844;BME280;51310;52.198;5.422;2023-08-31T04:13:59;100634.78;;;11.68;88.96
64844;BME280;51310;52.198;5.422;2023-08-31T04:16:27;100631.44;;;11.77;88.95
64844;BME280;51310;52.198;5.422;2023-08-31T04:18:55;100630.25;;;11.81;88.91
64844;BME280;51310;52.198;5.422;2023-08-31T04:21:21;100636.38;;;11.83;88.96
64844;BME280;51310;52.198;5.422;2023-08-31T04:23:47;100643.03;;;11.91;89.00
64844;BME280;51310;52.198;5.422;2023-08-31T04:26:13;100642.38;;;11.87;89.03
64844;BME280;51310;52.198;5.422;2023-08-31T04:28:40;100641.72;;;11.83;89.14
64844;BME280;51310;52.198;5.422;2023-08-31T04:31:07;100647.94;;;11.84;89.33
64844;BME280;51310;52.198;5.422;2023-08-31T04:33:38;100653.97;;;11.87;89.40
64844;BME280;51310;52.198;5.422;2023-08-31T04:36:05;100640.34;;;11.78;89.55
64844;BME280;51310;52.198;5.422;2023-08-31T04:38:32;100654.16;;;11.84;89.60
64844;BME280;51310;52.198;5.422;2023-08-31T04:40:59;100659.50;;;11.84;89.63
64844;BME280;51310;52.198;5.422;2023-08-31T04:43:25;100646.56;;;11.78;89.61
64844;BME280;51310;52.198;5.422;2023-08-31T04:45:53;100635.31;;;11.73;89.73
64844;BME280;51310;52.198;5.422;2023-08-31T04:48:19;100663.69;;;11.88;89.71
64844;BME280;51310;52.198;5.422;2023-08-31T04:50:45;100667.34;;;11.87;89.57
64844;BME280;51310;52.198;5.422;2023-08-31T04:53:12;100662.19;;;11.84;89.50
64844;BME280;51310;52.198;5.422;2023-08-31T04:55:38;100653.19;;;11.85;89.37
64844;BME280;51310;52.198;5.422;2023-08-31T04:58:04;100672.06;;;11.97;89.40
64844;BME280;51310;52.198;5.422;2023-08-31T05:00:30;100661.00;;;11.88;89.26
64844;BME280;51310;52.198;5.422;2023-08-31T05:02:57;100662.75;;;11.90;89.25
64844;BME280;51310;52.198;5.422;2023-08-31T05:05:23;100671.41;;;11.93;89.07
64844;BME280;51310;52.198;5.422;2023-08-31T05:07:49;100685.75;;;12.05;89.09
64844;BME280;51310;52.198;5.422;2023-08-31T05:10:15;100682.34;;;12.03;89.08
64844;BME280;51310;52.198;5.422;2023-08-31T05:12:42;100685.00;;;12.03;89.02
64844;BME280;51310;52.198;5.422;2023-08-31T05:15:08;100689.53;;;12.02;89.03
64844;BME280;51310;52.198;5.422;2023-08-31T05:17:35;100698.50;;;12.01;88.95
64844;BME280;51310;52.198;5.422;2023-08-31T05:20:01;100683.94;;;11.93;89.11
64844;BME280;51310;52.198;5.422;2023-08-31T05:22:29;100685.88;;;11.91;89.29
64844;BME280;51310;52.198;5.422;2023-08-31T05:24:55;100710.63;;;12.07;89.27
64844;BME280;51310;52.198;5.422;2023-08-31T05:27:21;100710.63;;;12.07;89.34
64844;BME280;51310;52.198;5.422;2023-08-31T05:29:47;100718.19;;;12.13;89.41
64844;BME280;51310;52.198;5.422;2023-08-31T05:32:13;100698.91;;;12.08;89.36
64844;BME280;51310;52.198;5.422;2023-08-31T05:34:39;100710.16;;;12.13;89.52
64844;BME280;51310;52.198;5.422;2023-08-31T05:37:05;100718.75;;;12.18;89.36
64844;BME280;51310;52.198;5.422;2023-08-31T05:39:31;100724.50;;;12.25;89.35
64844;BME280;51310;52.198;5.422;2023-08-31T05:41:57;100735.34;;;12.23;89.37
64844;BME280;51310;52.198;5.422;2023-08-31T05:44:23;100714.75;;;12.11;89.21
64844;BME280;51310;52.198;5.422;2023-08-31T05:46:49;100723.34;;;12.16;89.41
64844;BME280;51310;52.198;5.422;2023-08-31T05:49:15;100718.41;;;12.10;89.39
64844;BME280;51310;52.198;5.422;2023-08-31T05:51:41;100732.84;;;12.20;89.52
64844;BME280;51310;52.198;5.422;2023-08-31T05:54:06;100731.16;;;12.19;89.38
64844;BME280;51310;52.198;5.422;2023-08-31T05:56:39;100735.75;;;12.17;89.45
64844;BME280;51310;52.198;5.422;2023-08-31T05:59:06;100738.09;;;12.22;89.17
64844;BME280;51310;52.198;5.422;2023-08-31T06:01:34;100749.47;;;12.25;89.30
64844;BME280;51310;52.198;5.422;2023-08-31T06:04:01;100747.56;;;12.27;89.22
64844;BME280;51310;52.198;5.422;2023-08-31T06:06:29;100740.88;;;12.20;89.35
64844;BME280;51310;52.198;5.422;2023-08-31T06:08:55;100754.50;;;12.30;89.49
64844;BME280;51310;52.198;5.422;2023-08-31T06:11:22;100756.44;;;12.41;89.53
64844;BME280;51310;52.198;5.422;2023-08-31T06:13:48;100752.00;;;12.53;89.72
64844;BME280;51310;52.198;5.422;2023-08-31T06:16:14;100749.94;;;12.56;89.88
64844;BME280;51310;52.198;5.422;2023-08-31T06:18:40;100745.53;;;12.55;89.75
64844;BME280;51310;52.198;5.422;2023-08-31T06:21:05;100757.97;;;12.56;89.85
64844;BME280;51310;52.198;5.422;2023-08-31T06:23:31;100757.75;;;12.59;89.96
64844;BME280;51310;52.198;5.422;2023-08-31T06:25:57;100757.00;;;12.57;89.94
64844;BME280;51310;52.198;5.422;2023-08-31T06:28:23;100764.81;;;12.60;89.87
64844;BME280;51310;52.198;5.422;2023-08-31T06:30:49;100758.72;;;12.58;89.96
64844;BME280;51310;52.198;5.422;2023-08-31T06:33:15;100755.84;;;12.48;89.84
64844;BME280;51310;52.198;5.422;2023-08-31T06:35:45;100764.97;;;12.59;89.82
64844;BME280;51310;52.198;5.422;2023-08-31T06:38:14;100732.81;;;12.46;89.73
64844;BME280;51310;52.198;5.422;2023-08-31T06:40:42;100744.78;;;12.53;89.79
64844;BME280;51310;52.198;5.422;2023-08-31T06:43:09;100758.03;;;12.67;89.81
64844;BME280;51310;52.198;5.422;2023-08-31T06:45:35;100747.25;;;12.56;89.72
64844;BME280;51310;52.198;5.422;2023-08-31T06:48:01;100772.09;;;12.71;89.81
64844;BME280;51310;52.198;5.422;2023-08-31T06:50:28;100760.63;;;12.69;89.70
64844;BME280;51310;52.198;5.422;2023-08-31T06:52:54;100757.00;;;12.70;89.76
64844;BME280;51310;52.198;5.422;2023-08-31T06:55:20;100765.81;;;12.83;89.68
64844;BME280;51310;52.198;5.422;2023-08-31T06:57:46;100752.53;;;12.82;89.72
64844;BME280;51310;52.198;5.422;2023-08-31T07:00:12;100765.09;;;13.05;89.55
64844;BME280;51310;52.198;5.422;2023-08-31T07:02:41;100780.53;;;13.26;89.48
64844;BME280;51310;52.198;5.422;2023-08-31T07:05:08;100760.91;;;13.25;89.03
64844;BME280;51310;52.198;5.422;2023-08-31T07:07:35;100767.38;;;13.23;88.37
64844;BME280;51310;52.198;5.422;2023-08-31T07:10:01;100775.84;;;13.29;87.74
64844;BME280;51310;52.198;5.422;2023-08-31T07:12:27;100782.38;;;13.25;87.37
64844;BME280;51310;52.198;5.422;2023-08-31T07:14:53;100782.81;;;13.32;87.22
64844;BME280;51310;52.198;5.422;2023-08-31T07:17:19;100786.22;;;13.58;86.77
64844;BME280;51310;52.198;5.422;2023-08-31T07:19:45;100779.75;;;13.61;86.04
64844;BME280;51310;52.198;5.422;2023-08-31T07:22:11;100787.75;;;13.85;85.53
64844;BME280;51310;52.198;5.422;2023-08-31T07:24:37;100782.13;;;13.99;84.63
64844;BME280;51310;52.198;5.422;2023-08-31T07:27:04;100798.00;;;14.02;84.13
64844;BME280;51310;52.198;5.422;2023-08-31T07:29:31;100796.75;;;13.84;83.91
64844;BME280;51310;52.198;5.422;2023-08-31T07:31:57;100804.31;;;13.79;83.80
64844;BME280;51310;52.198;5.422;2023-08-31T07:34:23;100807.13;;;13.77;84.06
64844;BME280;51310;52.198;5.422;2023-08-31T07:36:49;100815.00;;;14.03;84.13
64844;BME280;51310;52.198;5.422;2023-08-31T07:39:16;100823.44;;;14.21;83.95
64844;BME280;51310;52.198;5.422;2023-08-31T07:41:45;100815.75;;;14.27;83.51
64844;BME280;51310;52.198;5.422;2023-08-31T07:44:11;100798.28;;;14.22;83.16
64844;BME280;51310;52.198;5.422;2023-08-31T07:46:36;100821.75;;;14.42;82.97
64844;BME280;51310;52.198;5.422;2023-08-31T07:49:02;100822.00;;;14.50;83.13
64844;BME280;51310;52.198;5.422;2023-08-31T07:51:29;100822.84;;;14.40;82.79
64844;BME280;51310;52.198;5.422;2023-08-31T07:53:55;100825.81;;;14.48;82.68
64844;BME280;51310;52.198;5.422;2023-08-31T07:56:22;100822.41;;;14.57;83.10
64844;BME280;51310;52.198;5.422;2023-08-31T07:58:50;100830.09;;;14.62;82.70
64844;BME280;51310;52.198;5.422;2023-08-31T08:01:15;100814.81;;;14.73;82.56
64844;BME280;51310;52.198;5.422;2023-08-31T08:03:41;100820.16;;;14.96;81.96
64844;BME280;51310;52.198;5.422;2023-08-31T08:06:07;100845.34;;;14.95;81.25
64844;BME280;51310;52.198;5.422;2023-08-31T08:08:34;100847.56;;;14.90;81.60
64844;BME280;51310;52.198;5.422;2023-08-31T08:10:59;100830.22;;;14.60;82.11
64844;BME280;51310;52.198;5.422;2023-08-31T08:13:25;100849.31;;;14.57;82.69
64844;BME280;51310;52.198;5.422;2023-08-31T08:15:51;100848.31;;;14.58;83.24
64844;BME280;51310;52.198;5.422;2023-08-31T08:18:17;100821.13;;;14.38;83.32
64844;BME280;51310;52.198;5.422;2023-08-31T08:20:43;100841.06;;;14.47;83.29
64844;BME280;51310;52.198;5.422;2023-08-31T08:23:13;100852.47;;;14.62;83.45
64844;BME280;51310;52.198;5.422;2023-08-31T08:25:38;100851.25;;;14.66;83.42
64844;BME280;51310;52.198;5.422;2023-08-31T08:28:04;100858.34;;;14.67;83.24
64844;BME280;51310;52.198;5.422;2023-08-31T08:30:30;100847.69;;;14.66;83.13
64844;BME280;51310;52.198;5.422;2023-08-31T08:32:56;100861.75;;;14.92;83.22
64844;BME280;51310;52.198;5.422;2023-08-31T08:35:24;100845.84;;;14.89;82.66
64844;BME280;51310;52.198;5.422;2023-08-31T08:37:50;100856.59;;;15.11;82.20
64844;BME280;51310;52.198;5.422;2023-08-31T08:40:16;100842.09;;;15.24;81.66
64844;BME280;51310;52.198;5.422;2023-08-31T08:42:43;100854.03;;;15.42;81.20
64844;BME280;51310;52.198;5.422;2023-08-31T08:45:15;100872.00;;;15.53;80.77
64844;BME280;51310;52.198;5.422;2023-08-31T08:47:42;100873.19;;;15.60;81.38
64844;BME280;51310;52.198;5.422;2023-08-31T08:50:11;100859.91;;;15.47;79.98
64844;BME280;51310;52.198;5.422;2023-08-31T08:52:39;100858.44;;;15.43;79.66
64844;BME280;51310;52.198;5.422;2023-08-31T08:55:07;100855.31;;;15.59;80.12
64844;BME280;51310;52.198;5.422;2023-08-31T08:57:34;100857.38;;;15.67;80.07
64844;BME280;51310;52.198;5.422;2023-08-31T09:00:01;100870.81;;;15.78;79.18
64844;BME280;51310;52.198;5.422;2023-08-31T09:02:29;100864.00;;;15.74;78.73
64844;BME280;51310;52.198;5.422;2023-08-31T09:04:55;100867.94;;;15.91;78.51
64844;BME280;51310;52.198;5.422;2023-08-31T09:07:21;100871.91;;;16.08;78.28
64844;BME280;51310;52.198;5.422;2023-08-31T09:09:54;100881.34;;;16.23;77.65
64844;BME280;51310;52.198;5.422;2023-08-31T09:12:24;100881.09;;;16.26;77.63
64844;BME280;51310;52.198;5.422;2023-08-31T09:15:04;100876.97;;;16.01;76.80
64844;BME280;51310;52.198;5.422;2023-08-31T09:17:43;100884.44;;;15.76;77.33
64844;BME280;51310;52.198;5.422;2023-08-31T09:20:10;100875.53;;;15.53;77.71
64844;BME280;51310;52.198;5.422;2023-08-31T09:22:36;100867.75;;;15.39;78.58
64844;BME280;51310;52.198;5.422;2023-08-31T09:25:02;100855.56;;;15.24;79.51
64844;BME280;51310;52.198;5.422;2023-08-31T09:27:31;100879.19;;;15.31;79.32
64844;BME280;51310;52.198;5.422;2023-08-31T09:30:08;100871.56;;;15.36;79.88
64844;BME280;51310;52.198;5.422;2023-08-31T09:32:35;100883.56;;;15.32;79.42
64844;BME280;51310;52.198;5.422;2023-08-31T09:35:01;100874.72;;;15.41;78.99
64844;BME280;51310;52.198;5.422;2023-08-31T09:37:29;100864.28;;;15.48;77.78
64844;BME280;51310;52.198;5.422;2023-08-31T09:39:55;100873.66;;;15.76;76.68
64844;BME280;51310;52.198;5.422;2023-08-31T09:42:21;100879.47;;;15.93;75.23
64844;BME280;51310;52.198;5.422;2023-08-31T09:44:49;100864.59;;;15.98;74.40
64844;BME280;51310;52.198;5.422;2023-08-31T09:47:17;100880.38;;;16.24;73.64
64844;BME280;51310;52.198;5.422;2023-08-31T09:49:45;100868.53;;;16.36;73.20
64844;BME280;51310;52.198;5.422;2023-08-31T09:52:13;100872.84;;;16.49;71.23
64844;BME280;51310;52.198;5.422;2023-08-31T09:54:40;100864.50;;;16.52;71.91
64844;BME280;51310;52.198;5.422;2023-08-31T09:57:08;100865.03;;;16.76;72.78
64844;BME280;51310;52.198;5.422;2023-08-31T09:59:39;100878.78;;;17.04;71.81
64844;BME280;51310;52.198;5.422;2023-08-31T10:02:07;100870.72;;;17.23;71.64
64844;BME280;51310;52.198;5.422;2023-08-31T10:04:36;100882.63;;;17.11;67.95
64844;BME280;51310;52.198;5.422;2023-08-31T10:07:03;100882.19;;;17.06;66.83
64844;BME280;51310;52.198;5.422;2023-08-31T10:09:31;100876.84;;;17.16;67.24
64844;BME280;51310;52.198;5.422;2023-08-31T10:11:58;100882.13;;;17.37;66.88
64844;BME280;51310;52.198;5.422;2023-08-31T10:14:24;100884.88;;;17.66;67.62
64844;BME280;51310;52.198;5.422;2023-08-31T10:16:52;100866.22;;;17.73;67.50
64844;BME280;51310;52.198;5.422;2023-08-31T10:19:21;100867.94;;;17.74;68.50
64844;BME280;51310;52.198;5.422;2023-08-31T10:21:47;100875.75;;;17.67;63.00
64844;BME280;51310;52.198;5.422;2023-08-31T10:24:13;100863.81;;;17.89;62.46
64844;BME280;51310;52.198;5.422;2023-08-31T10:26:39;100880.03;;;17.99;62.91
64844;BME280;51310;52.198;5.422;2023-08-31T10:29:05;100873.50;;;18.01;62.79
64844;BME280;51310;52.198;5.422;2023-08-31T10:31:33;100884.44;;;18.09;62.24
64844;BME280;51310;52.198;5.422;2023-08-31T10:34:03;100885.28;;;18.20;60.62
64844;BME280;51310;52.198;5.422;2023-08-31T10:36:45;100882.13;;;18.34;57.86
64844;BME280;51310;52.198;5.422;2023-08-31T10:39:13;100894.22;;;18.30;59.60
64844;BME280;51310;52.198;5.422;2023-08-31T10:41:56;100870.75;;;18.21;56.87
64844;BME280;51310;52.198;5.422;2023-08-31T10:44:29;100892.97;;;18.15;57.15
64844;BME280;51310;52.198;5.422;2023-08-31T10:47:00;100871.22;;;18.06;56.49
64844;BME280;51310;52.198;5.422;2023-08-31T10:49:29;100863.41;;;17.94;56.27
64844;BME280;51310;52.198;5.422;2023-08-31T10:51:57;100887.84;;;18.12;55.16
64844;BME280;51310;52.198;5.422;2023-08-31T10:54:41;100886.56;;;18.16;55.43
64844;BME280;51310;52.198;5.422;2023-08-31T10:57:07;100875.47;;;18.28;57.64
64844;BME280;51310;52.198;5.422;2023-08-31T11:02:43;100891.06;;;18.44;54.77
64844;BME280;51310;52.198;5.422;2023-08-31T11:05:17;100879.66;;;18.50;54.90
64844;BME280;51310;52.198;5.422;2023-08-31T11:07:48;100894.22;;;18.30;52.21
64844;BME280;51310;52.198;5.422;2023-08-31T11:10:20;100897.94;;;18.29;55.05
64844;BME280;51310;52.198;5.422;2023-08-31T11:12:53;100891.31;;;18.61;54.22
64844;BME280;51310;52.198;5.422;2023-08-31T11:15:25;100889.50;;;18.89;52.34
64844;BME280;51310;52.198;5.422;2023-08-31T11:17:54;100895.69;;;18.81;49.08
64844;BME280;51310;52.198;5.422;2023-08-31T11:20:22;100879.91;;;18.67;49.18
64844;BME280;51310;52.198;5.422;2023-08-31T11:22:51;100894.47;;;18.56;49.27
64844;BME280;51310;52.198;5.422;2023-08-31T11:25:20;100895.78;;;18.33;50.72
64844;BME280;51310;52.198;5.422;2023-08-31T11:28:03;100911.16;;;18.42;56.30
64844;BME280;51310;52.198;5.422;2023-08-31T11:30:32;100887.59;;;17.95;56.32
64844;BME280;51310;52.198;5.422;2023-08-31T11:33:07;100901.97;;;18.15;58.23
64844;BME280;51310;52.198;5.422;2023-08-31T11:35:39;100882.16;;;18.24;58.35
64844;BME280;51310;52.198;5.422;2023-08-31T11:38:09;100900.41;;;18.13;57.88
64844;BME280;51310;52.198;5.422;2023-08-31T11:40:36;100879.75;;;17.92;58.46
64844;BME280;51310;52.198;5.422;2023-08-31T11:43:05;100883.03;;;17.96;56.82
64844;BME280;51310;52.198;5.422;2023-08-31T11:45:32;100894.13;;;18.02;56.72
64844;BME280;51310;52.198;5.422;2023-08-31T11:47:59;100895.13;;;18.11;58.34
64844;BME280;51310;52.198;5.422;2023-08-31T11:50:25;100888.00;;;18.20;55.20
64844;BME280;51310;52.198;5.422;2023-08-31T11:52:54;100905.81;;;18.13;56.00
64844;BME280;51310;52.198;5.422;2023-08-31T11:55:21;100895.25;;;18.09;56.24
64844;BME280;51310;52.198;5.422;2023-08-31T11:57:54;100909.47;;;18.31;54.32
64844;BME280;51310;52.198;5.422;2023-08-31T12:00:21;100907.03;;;18.38;55.37
64844;BME280;51310;52.198;5.422;2023-08-31T12:03:00;100918.13;;;18.35;53.02
64844;BME280;51310;52.198;5.422;2023-08-31T12:05:27;100895.66;;;18.15;52.43
64844;BME280;51310;52.198;5.422;2023-08-31T12:07:55;100905.06;;;18.20;52.64
64844;BME280;51310;52.198;5.422;2023-08-31T12:10:26;100905.75;;;18.32;53.14
64844;BME280;51310;52.198;5.422;2023-08-31T12:12:52;100901.72;;;18.46;54.03
64844;BME280;51310;52.198;5.422;2023-08-31T12:15:18;100906.97;;;18.67;53.11
64844;BME280;51310;52.198;5.422;2023-08-31T12:17:48;100896.00;;;18.59;52.75
64844;BME280;51310;52.198;5.422;2023-08-31T12:20:24;100895.38;;;18.84;50.65
64844;BME280;51310;52.198;5.422;2023-08-31T12:22:52;100908.19;;;18.82;49.82
64844;BME280;51310;52.198;5.422;2023-08-31T12:25:21;100907.38;;;18.72;48.10
64844;BME280;51310;52.198;5.422;2023-08-31T12:27:48;100903.81;;;18.71;49.06
64844;BME280;51310;52.198;5.422;2023-08-31T12:30:15;100897.97;;;18.66;47.13
64844;BME280;51310;52.198;5.422;2023-08-31T12:32:41;100910.22;;;18.70;47.24
64844;BME280;51310;52.198;5.422;2023-08-31T12:35:07;100900.16;;;18.53;48.03
64844;BME280;51310;52.198;5.422;2023-08-31T12:37:35;100902.06;;;18.90;48.18
64844;BME280;51310;52.198;5.422;2023-08-31T12:40:01;100911.78;;;18.83;47.29
64844;BME280;51310;52.198;5.422;2023-08-31T12:42:30;100891.44;;;18.69;47.70
64844;BME280;51310;52.198;5.422;2023-08-31T12:44:56;100915.03;;;18.86;48.11
64844;BME280;51310;52.198;5.422;2023-08-31T12:47:21;100908.50;;;18.79;48.38
64844;BME280;51310;52.198;5.422;2023-08-31T12:49:47;100925.56;;;18.89;48.19
64844;BME280;51310;52.198;5.422;2023-08-31T12:52:13;100903.38;;;18.76;48.38
64844;BME280;51310;52.198;5.422;2023-08-31T12:54:39;100916.19;;;18.84;48.12
64844;BME280;51310;52.198;5.422;2023-08-31T12:57:06;100923.84;;;18.98;49.04
64844;BME280;51310;52.198;5.422;2023-08-31T12:59:31;100912.09;;;19.07;47.84
64844;BME280;51310;52.198;5.422;2023-08-31T13:01:57;100917.16;;;19.20;47.46
64844;BME280;51310;52.198;5.422;2023-08-31T13:04:23;100930.81;;;19.28;46.97